LiveATC.Net - Listen to live air traffic control over the Internet!

ICAO: CYSB  IATA: YSB   Airport: Sudbury Airport
City: Sudbury   State/Province: Ontario
Country: Canada   Continent: North America
CYSB METAR Weather: CYSB 230800Z 36010KT 15SM SCT150 M08/M14 A3018 RMK AC4 SLP243
CYSB Flight Activity (FlightAware)
CYSB Gnd/Twr/Center
Feed Status: UP   Listeners: 0
Listen right in your browser - requires Flash (in browser, requires Flash)
Click here to listen with your own player (launches your MP3 player)
CYSB Gnd/Twr/Center Audio Archives
Sudbury Ground121.800
Sudbury Tower125.500
Toronto Centre135.500


Unauthorized use prohibited. See Terms of Service

Find LiveATC Audio Streams

Airport/ARTCC Code

Frequency Search
(e.g., 124.400, 128.75)
Site-wide search

Browse LiveATC Feeds
LiveATC Coverage Map
Top 50 LiveATC Feeds
Bad Weather Areas

Offer a LiveATC Feed
Press Inquiries

LiveATC on iPhone
LiveATC on Android

Windows Phone
Windows 8/10

LiveATC Mobile
(Mobile browser)

ATC Audio Archives
Interesting Recordings

LiveATC Forums

Home Page
Make a Donation
Terms of Use
Privacy Policy

Canadian Air Freqs


FAA Airport Status
Nat'l Airspace Status
Arrival Demand Charts

Server Software By: